Time;durP1;ratioP1;P1;durP2;ratioP2;P2;SDS_P1;SDS_P2;PMS_P1;PMS_P2;Temp;Humidity;BMP_temperature;BMP_pressure;BME280_temperature;BME280_humidity;BME280_pressure;Samples;Min_cycle;Max_cycle;Signal;HPM_P1;HPM_P2
2021/05/10 00:02:23;;;;;;;3.20;1.63;;;;;;;;;;5091855;28;20038;-13
2021/05/10 00:04:49;;;;;;;2.65;1.70;;;;;;;;;;5093238;28;20020;-13
2021/05/10 00:07:14;;;;;;;3.67;2.20;;;;;;;;;;5091627;28;20494;-15
2021/05/10 00:09:39;;;;;;;5.80;2.00;;;;;;;;;;5093267;28;20366;-14
2021/05/10 00:12:05;;;;;;;3.78;1.77;;;;;;;;;;5092938;28;20158;-14
2021/05/10 00:14:43;;;;;;;1.38;1.05;;;;;;;;;;5108631;28;20013;-14
2021/05/10 00:17:09;;;;;;;2.70;1.50;;;;;;;;;;5092799;28;20479;-13
2021/05/10 00:19:35;;;;;;;3.30;1.67;;;;;;;;;;5092896;28;20091;-14
2021/05/10 00:22:00;;;;;;;5.78;1.95;;;;;;;;;;5092881;28;20388;-18
2021/05/10 00:24:26;;;;;;;2.33;1.75;;;;;;;;;;5092888;28;20511;-14
2021/05/10 00:26:51;;;;;;;4.60;1.92;;;;;;;;;;5092863;28;20061;-13
2021/05/10 00:29:18;;;;;;;2.83;1.70;;;;;;;;;;5092449;28;20079;-14
2021/05/10 00:31:44;;;;;;;4.22;1.90;;;;;;;;;;5108388;28;20028;-13
2021/05/10 00:34:10;;;;;;;3.75;1.80;;;;;;;;;;5092688;28;20031;-13
2021/05/10 00:36:35;;;;;;;2.13;1.98;;;;;;;;;;5092845;28;20062;-13
2021/05/10 00:39:00;;;;;;;3.97;2.30;;;;;;;;;;5092838;28;20094;-13
2021/05/10 00:41:26;;;;;;;5.97;2.10;;;;;;;;;;5092464;28;20119;-13
2021/05/10 00:43:51;;;;;;;6.05;2.35;;;;;;;;;;5092680;28;20020;-14
2021/05/10 00:46:17;;;;;;;7.13;2.90;;;;;;;;;;5092742;28;20514;-14
2021/05/10 00:48:42;;;;;;;3.38;2.45;;;;;;;;;;5091156;28;20055;-13
2021/05/10 00:51:07;;;;;;;3.63;2.28;;;;;;;;;;5092597;28;20059;-14
2021/05/10 00:53:33;;;;;;;4.82;2.20;;;;;;;;;;5092455;28;20016;-14
2021/05/10 00:55:58;;;;;;;4.03;2.60;;;;;;;;;;5097383;28;20031;-14
2021/05/10 00:58:24;;;;;;;4.60;2.53;;;;;;;;;;5099407;28;20020;-14
2021/05/10 01:00:49;;;;;;;5.13;2.58;;;;;;;;;;5097722;28;20061;-14
2021/05/10 01:03:15;;;;;;;5.38;2.90;;;;;;;;;;5099451;28;20340;-14
2021/05/10 01:05:42;;;;;;;7.03;2.45;;;;;;;;;;5098880;28;20050;-13
2021/05/10 01:08:07;;;;;;;5.45;2.72;;;;;;;;;;5098950;28;20032;-14
2021/05/10 01:10:33;;;;;;;8.70;3.38;;;;;;;;;;5099014;28;20032;-14
2021/05/10 01:12:58;;;;;;;10.07;3.08;;;;;;;;;;5098932;28;20020;-15
2021/05/10 01:15:26;;;;;;;7.07;2.60;;;;;;;;;;5099020;28;20032;-13
2021/05/10 01:17:52;;;;;;;6.32;2.65;;;;;;;;;;5098735;28;20020;-13
2021/05/10 01:20:17;;;;;;;8.43;3.47;;;;;;;;;;5114679;28;20032;-14
2021/05/10 01:22:44;;;;;;;5.05;3.00;;;;;;;;;;5099129;28;20035;-14
2021/05/10 01:25:11;;;;;;;4.93;2.65;;;;;;;;;;5098857;28;20089;-14
2021/05/10 01:27:36;;;;;;;3.60;2.17;;;;;;;;;;5098714;28;20126;-14
2021/05/10 01:30:06;;;;;;;4.90;2.10;;;;;;;;;;5098520;28;20135;-13
2021/05/10 01:32:31;;;;;;;5.97;2.08;;;;;;;;;;5099102;28;20044;-14
2021/05/10 01:34:57;;;;;;;7.65;1.88;;;;;;;;;;5099056;28;20020;-14
2021/05/10 01:37:22;;;;;;;3.40;2.05;;;;;;;;;;5098604;28;20111;-13
2021/05/10 01:39:48;;;;;;;3.58;2.40;;;;;;;;;;5098704;28;20032;-14
2021/05/10 01:42:13;;;;;;;3.25;2.00;;;;;;;;;;5097332;28;20028;-13
2021/05/10 01:44:38;;;;;;;4.68;1.83;;;;;;;;;;5098729;28;20099;-14
2021/05/10 01:47:04;;;;;;;2.28;1.77;;;;;;;;;;5098820;28;20066;-13
2021/05/10 01:49:29;;;;;;;1.67;1.48;;;;;;;;;;5098927;28;20463;-13
2021/05/10 01:51:54;;;;;;;3.90;1.75;;;;;;;;;;5098836;28;20509;-12
2021/05/10 01:54:20;;;;;;;2.25;1.88;;;;;;;;;;5114375;28;20036;-12
2021/05/10 01:56:46;;;;;;;8.55;2.10;;;;;;;;;;5098429;28;20020;-13
2021/05/10 01:59:11;;;;;;;10.82;2.20;;;;;;;;;;5097271;28;20028;-12
2021/05/10 02:01:37;;;;;;;2.33;1.58;;;;;;;;;;5098548;28;20349;-13
2021/05/10 02:04:03;;;;;;;3.70;1.67;;;;;;;;;;5098784;28;20036;-12
2021/05/10 02:06:28;;;;;;;3.70;2.20;;;;;;;;;;5097405;28;20390;-12
2021/05/10 02:08:54;;;;;;;3.33;1.90;;;;;;;;;;5095283;28;20044;-13
2021/05/10 02:11:19;;;;;;;4.15;2.10;;;;;;;;;;5095513;28;20019;-13
2021/05/10 02:13:46;;;;;;;7.25;2.00;;;;;;;;;;5095433;28;20457;-13
2021/05/10 02:16:11;;;;;;;4.30;1.95;;;;;;;;;;5094738;28;20099;-13
2021/05/10 02:18:37;;;;;;;5.60;2.03;;;;;;;;;;5094826;28;20056;-14
2021/05/10 02:21:03;;;;;;;3.65;2.42;;;;;;;;;;5095001;28;20030;-13
2021/05/10 02:23:29;;;;;;;7.10;2.50;;;;;;;;;;5095050;28;20051;-14
2021/05/10 02:25:56;;;;;;;3.55;1.98;;;;;;;;;;5093538;28;20023;-14
2021/05/10 02:28:24;;;;;;;4.10;2.88;;;;;;;;;;5110623;28;20084;-13
2021/05/10 02:30:50;;;;;;;7.60;2.67;;;;;;;;;;5094701;28;20044;-14
2021/05/10 02:33:17;;;;;;;4.45;2.38;;;;;;;;;;5093467;28;20090;-12
2021/05/10 02:35:43;;;;;;;4.38;2.35;;;;;;;;;;5095122;28;20054;-13
2021/05/10 02:38:09;;;;;;;8.48;2.28;;;;;;;;;;5094624;28;20616;-12
2021/05/10 02:40:34;;;;;;;6.85;2.58;;;;;;;;;;5094602;28;20111;-12
2021/05/10 02:42:59;;;;;;;4.70;2.53;;;;;;;;;;5110406;28;20138;-13
2021/05/10 02:45:25;;;;;;;8.13;2.63;;;;;;;;;;5110405;28;20037;-12
2021/05/10 02:47:50;;;;;;;4.57;2.60;;;;;;;;;;5094564;28;20040;-13
2021/05/10 02:50:20;;;;;;;10.20;2.90;;;;;;;;;;5094686;28;20023;-13
2021/05/10 02:52:48;;;;;;;5.97;2.88;;;;;;;;;;5094419;28;20051;-13
2021/05/10 02:55:14;;;;;;;6.60;3.47;;;;;;;;;;5094748;28;20024;-15
2021/05/10 02:57:39;;;;;;;4.60;2.45;;;;;;;;;;5094338;28;20016;-14
2021/05/10 03:00:15;;;;;;;6.20;2.40;;;;;;;;;;5092999;28;20348;-13
2021/05/10 03:02:41;;;;;;;4.82;2.63;;;;;;;;;;5094563;28;20059;-14
2021/05/10 03:05:07;;;;;;;2.70;1.92;;;;;;;;;;5094222;28;20055;-14
2021/05/10 03:07:33;;;;;;;7.32;2.72;;;;;;;;;;5094429;28;20067;-14
2021/05/10 03:09:59;;;;;;;5.95;3.63;;;;;;;;;;5094287;28;20447;-13
2021/05/10 03:12:24;;;;;;;5.70;2.95;;;;;;;;;;5092863;28;20028;-14
2021/05/10 03:14:49;;;;;;;5.22;2.35;;;;;;;;;;5094231;28;20027;-13
2021/05/10 03:17:15;;;;;;;5.13;2.20;;;;;;;;;;5093750;28;20028;-14
2021/05/10 03:19:40;;;;;;;5.78;1.92;;;;;;;;;;5109408;28;20012;-14
2021/05/10 03:22:06;;;;;;;5.70;2.42;;;;;;;;;;5109899;28;20360;-14
2021/05/10 03:24:31;;;;;;;3.95;2.28;;;;;;;;;;5093904;28;20485;-14
2021/05/10 03:26:56;;;;;;;3.05;1.90;;;;;;;;;;5093659;28;20047;-13
2021/05/10 03:29:22;;;;;;;5.75;2.28;;;;;;;;;;5092233;28;20040;-13
2021/05/10 03:31:47;;;;;;;6.00;2.45;;;;;;;;;;5093625;28;20085;-14
2021/05/10 03:34:12;;;;;;;3.85;2.53;;;;;;;;;;5093750;28;20440;-13
2021/05/10 03:36:39;;;;;;;4.22;2.25;;;;;;;;;;5093653;28;20028;-13
2021/05/10 03:39:05;;;;;;;6.15;2.70;;;;;;;;;;5093529;28;20062;-13
2021/05/10 03:41:30;;;;;;;4.30;1.83;;;;;;;;;;5109176;28;20055;-14
2021/05/10 03:43:57;;;;;;;4.65;1.50;;;;;;;;;;5093490;28;20352;-14
2021/05/10 03:46:23;;;;;;;4.90;2.55;;;;;;;;;;5093590;28;20028;-14
2021/05/10 03:48:48;;;;;;;4.65;2.38;;;;;;;;;;5093452;28;20525;-14
2021/05/10 03:51:13;;;;;;;4.18;2.53;;;;;;;;;;5093412;28;20430;-13
2021/05/10 03:53:39;;;;;;;5.93;2.35;;;;;;;;;;5093561;28;20024;-14
2021/05/10 03:56:04;;;;;;;4.88;2.58;;;;;;;;;;5093532;28;20028;-14
2021/05/10 03:58:29;;;;;;;4.70;1.90;;;;;;;;;;5093147;28;20505;-13
2021/05/10 04:00:55;;;;;;;7.05;2.38;;;;;;;;;;5093396;28;20068;-14
2021/05/10 04:03:22;;;;;;;4.65;2.30;;;;;;;;;;5093251;28;20016;-14
2021/05/10 04:08:52;;;;;;;3.90;2.20;;;;;;;;;;5091952;28;20044;-14
2021/05/10 04:13:54;;;;;;;8.48;2.65;;;;;;;;;;5092826;28;20658;-13
2021/05/10 04:16:20;;;;;;;4.65;2.88;;;;;;;;;;5092926;28;20498;-14
2021/05/10 04:18:45;;;;;;;2.30;1.77;;;;;;;;;;5092937;28;20090;-13
2021/05/10 04:21:10;;;;;;;5.32;2.58;;;;;;;;;;5092745;28;20119;-13
2021/05/10 04:23:36;;;;;;;2.42;1.90;;;;;;;;;;5093161;28;20016;-14
2021/05/10 04:26:01;;;;;;;3.17;1.95;;;;;;;;;;5092996;28;20039;-13
2021/05/10 04:28:27;;;;;;;4.03;2.75;;;;;;;;;;5092882;28;20158;-14
2021/05/10 04:30:52;;;;;;;7.05;2.70;;;;;;;;;;5091749;28;20491;-13
2021/05/10 04:33:27;;;;;;;5.40;3.15;;;;;;;;;;5092708;28;20032;-13
2021/05/10 04:35:53;;;;;;;4.15;2.75;;;;;;;;;;5092481;28;20054;-14
2021/05/10 04:38:19;;;;;;;6.45;3.08;;;;;;;;;;5092594;28;20049;-13
2021/05/10 04:40:44;;;;;;;3.50;2.85;;;;;;;;;;5092505;28;20446;-12
2021/05/10 04:43:10;;;;;;;4.78;2.28;;;;;;;;;;5091182;28;20073;-12
2021/05/10 04:45:35;;;;;;;4.95;2.10;;;;;;;;;;5092826;28;20417;-13
2021/05/10 04:48:01;;;;;;;3.83;2.28;;;;;;;;;;5092553;28;20028;-13
2021/05/10 04:50:26;;;;;;;4.10;2.38;;;;;;;;;;5092774;28;20417;-12
2021/05/10 04:52:52;;;;;;;3.72;2.30;;;;;;;;;;5092390;28;20012;-13
2021/05/10 04:55:17;;;;;;;5.28;2.72;;;;;;;;;;5108252;28;20035;-13
2021/05/10 04:57:44;;;;;;;4.95;2.40;;;;;;;;;;5091020;28;20459;-13
2021/05/10 05:00:10;;;;;;;4.82;2.17;;;;;;;;;;5092300;28;20484;-12
2021/05/10 05:02:36;;;;;;;6.25;2.35;;;;;;;;;;5091027;28;20037;-12
2021/05/10 05:05:03;;;;;;;4.35;2.28;;;;;;;;;;5092548;28;20021;-12
2021/05/10 05:07:28;;;;;;;3.38;1.95;;;;;;;;;;5092252;28;20020;-13
2021/05/10 05:09:53;;;;;;;5.57;2.30;;;;;;;;;;5092083;28;20025;-13
2021/05/10 05:12:19;;;;;;;6.68;2.70;;;;;;;;;;5092294;28;20031;-12
2021/05/10 05:14:44;;;;;;;2.08;1.77;;;;;;;;;;5092563;28;20028;-13
2021/05/10 05:17:10;;;;;;;1.92;1.50;;;;;;;;;;5092331;28;20032;-13
2021/05/10 05:19:35;;;;;;;4.07;2.30;;;;;;;;;;5107945;28;20085;-12
2021/05/10 05:22:01;;;;;;;9.27;2.35;;;;;;;;;;5092340;28;20020;-13
2021/05/10 05:24:26;;;;;;;4.90;2.10;;;;;;;;;;5092177;28;20036;-13
2021/05/10 05:26:51;;;;;;;6.20;3.05;;;;;;;;;;5107616;28;20034;-12
2021/05/10 05:29:20;;;;;;;3.70;2.38;;;;;;;;;;5091900;28;20062;-13
2021/05/10 05:31:45;;;;;;;3.13;2.03;;;;;;;;;;5092076;28;20085;-13
2021/05/10 05:34:11;;;;;;;6.07;2.58;;;;;;;;;;5092271;28;20016;-12
2021/05/10 05:36:36;;;;;;;3.97;2.42;;;;;;;;;;5092109;28;20020;-11
2021/05/10 05:39:04;;;;;;;9.82;2.42;;;;;;;;;;5092014;28;20055;-13
2021/05/10 05:41:31;;;;;;;4.18;2.17;;;;;;;;;;5093484;28;20090;-12
2021/05/10 05:43:57;;;;;;;6.13;3.25;;;;;;;;;;5111538;28;20028;-12
2021/05/10 05:46:27;;;;;;;3.40;2.40;;;;;;;;;;5095928;28;20027;-12
2021/05/10 05:48:53;;;;;;;5.00;2.08;;;;;;;;;;5095904;28;20036;-12
2021/05/10 05:51:19;;;;;;;5.50;2.40;;;;;;;;;;5095806;28;20489;-12
2021/05/10 05:53:45;;;;;;;8.23;3.10;;;;;;;;;;5094808;28;20136;-12
2021/05/10 05:56:11;;;;;;;3.60;2.20;;;;;;;;;;5095138;28;20506;-12
2021/05/10 05:58:36;;;;;;;4.18;2.00;;;;;;;;;;5095611;28;20110;-12
2021/05/10 06:01:02;;;;;;;6.38;2.28;;;;;;;;;;5095187;28;20413;-12
2021/05/10 06:03:29;;;;;;;3.15;1.77;;;;;;;;;;5093430;28;20036;-12
2021/05/10 06:05:54;;;;;;;2.33;1.58;;;;;;;;;;5094506;28;20019;-12
2021/05/10 06:08:20;;;;;;;2.75;2.08;;;;;;;;;;5095492;28;20066;-13
2021/05/10 06:10:47;;;;;;;6.43;1.77;;;;;;;;;;5095348;28;20474;-13
2021/05/10 06:13:12;;;;;;;3.60;2.40;;;;;;;;;;5093957;28;20032;-13
2021/05/10 06:15:38;;;;;;;5.00;2.92;;;;;;;;;;5095103;28;20016;-13
2021/05/10 06:18:03;;;;;;;2.33;2.10;;;;;;;;;;5093116;28;20024;-13
2021/05/10 06:20:29;;;;;;;2.28;1.88;;;;;;;;;;5094810;28;20024;-13
2021/05/10 06:22:54;;;;;;;2.60;1.45;;;;;;;;;;5095036;28;20040;-13
2021/05/10 06:25:20;;;;;;;3.55;1.88;;;;;;;;;;5094057;28;20008;-13
2021/05/10 06:27:45;;;;;;;4.30;2.00;;;;;;;;;;5094845;28;20047;-14
2021/05/10 06:30:12;;;;;;;5.10;2.40;;;;;;;;;;5110309;28;20040;-12
2021/05/10 06:32:38;;;;;;;4.85;2.08;;;;;;;;;;5095024;28;20039;-13
2021/05/10 06:35:03;;;;;;;4.80;2.15;;;;;;;;;;5094822;28;20032;-13
2021/05/10 06:37:29;;;;;;;6.90;2.08;;;;;;;;;;5094819;28;20032;-13
2021/05/10 06:39:58;;;;;;;3.95;1.88;;;;;;;;;;5094940;28;20023;-13
2021/05/10 06:42:24;;;;;;;3.35;1.48;;;;;;;;;;5094616;28;20073;-14
2021/05/10 06:44:49;;;;;;;2.55;1.88;;;;;;;;;;5094639;28;20573;-13
2021/05/10 06:47:14;;;;;;;4.53;2.10;;;;;;;;;;5094833;28;20044;-13
2021/05/10 06:49:40;;;;;;;7.45;2.00;;;;;;;;;;5094596;28;20560;-13
2021/05/10 06:52:05;;;;;;;6.22;2.30;;;;;;;;;;5094264;28;20043;-14
2021/05/10 06:54:30;;;;;;;8.02;2.25;;;;;;;;;;5092503;28;20020;-14
2021/05/10 06:56:56;;;;;;;3.50;1.42;;;;;;;;;;5110297;28;20077;-13
2021/05/10 06:59:21;;;;;;;4.43;1.90;;;;;;;;;;5094489;28;20459;-14
2021/05/10 07:01:47;;;;;;;4.22;2.00;;;;;;;;;;5094351;28;20069;-14
2021/05/10 07:04:12;;;;;;;4.57;1.70;;;;;;;;;;5094231;28;20386;-14
2021/05/10 07:06:38;;;;;;;2.70;1.80;;;;;;;;;;5094212;28;20032;-14
2021/05/10 07:09:04;;;;;;;2.53;1.58;;;;;;;;;;5094157;28;20024;-13
2021/05/10 07:11:29;;;;;;;5.05;1.70;;;;;;;;;;5094402;28;20442;-13
2021/05/10 07:13:55;;;;;;;5.63;2.22;;;;;;;;;;5093971;28;20024;-14
2021/05/10 07:16:20;;;;;;;5.80;2.20;;;;;;;;;;5094308;28;20133;-12
2021/05/10 07:18:45;;;;;;;4.20;2.15;;;;;;;;;;5093888;28;20027;-13
2021/05/10 07:21:11;;;;;;;2.97;1.52;;;;;;;;;;5094195;28;20036;-13
2021/05/10 07:23:36;;;;;;;4.07;1.88;;;;;;;;;;5093949;28;20012;-13
2021/05/10 07:26:02;;;;;;;2.38;1.38;;;;;;;;;;5093651;28;20458;-13
2021/05/10 07:28:27;;;;;;;1.65;1.25;;;;;;;;;;5093874;28;20032;-13
2021/05/10 07:30:53;;;;;;;2.65;1.50;;;;;;;;;;5093552;28;20044;-14
2021/05/10 07:33:18;;;;;;;6.93;2.00;;;;;;;;;;5094021;28;20043;-12
2021/05/10 07:35:44;;;;;;;3.28;1.55;;;;;;;;;;5092743;28;20201;-13
2021/05/10 07:38:09;;;;;;;2.25;1.40;;;;;;;;;;5093544;28;20016;-14
2021/05/10 07:40:35;;;;;;;1.73;1.08;;;;;;;;;;5093771;28;20110;-15
2021/05/10 07:43:00;;;;;;;1.40;1.27;;;;;;;;;;5093547;28;20053;-13
2021/05/10 07:45:26;;;;;;;1.58;0.90;;;;;;;;;;5093500;28;20032;-12
2021/05/10 07:47:54;;;;;;;1.50;0.85;;;;;;;;;;5093511;28;20032;-14
2021/05/10 07:50:21;;;;;;;1.58;0.70;;;;;;;;;;5093488;28;20024;-13
2021/05/10 07:52:46;;;;;;;0.63;0.52;;;;;;;;;;5093691;28;20024;-12
2021/05/10 07:55:12;;;;;;;0.90;0.50;;;;;;;;;;5093571;28;20024;-13
2021/05/10 07:57:37;;;;;;;2.75;0.50;;;;;;;;;;5093522;28;20016;-12
2021/05/10 08:00:06;;;;;;;0.43;0.43;;;;;;;;;;5093151;28;20028;-12
2021/05/10 08:02:46;;;;;;;3.05;0.75;;;;;;;;;;5093243;28;20028;-12
2021/05/10 08:05:12;;;;;;;1.20;0.40;;;;;;;;;;5093016;28;20024;-13
2021/05/10 08:07:37;;;;;;;0.57;0.50;;;;;;;;;;5093276;28;20089;-12
2021/05/10 08:10:07;;;;;;;1.45;0.68;;;;;;;;;;5092971;28;20028;-12
2021/05/10 08:12:32;;;;;;;0.73;0.50;;;;;;;;;;5093375;28;20036;-12
2021/05/10 08:14:58;;;;;;;0.98;0.50;;;;;;;;;;5093186;28;20516;-12
2021/05/10 08:17:24;;;;;;;2.33;0.77;;;;;;;;;;5091832;28;20031;-12
2021/05/10 08:19:50;;;;;;;4.47;0.63;;;;;;;;;;4737506;28;9999926;-13
2021/05/10 08:22:16;;;;;;;1.45;0.60;;;;;;;;;;5089259;28;20063;-14
2021/05/10 08:24:43;;;;;;;5.40;1.05;;;;;;;;;;5089329;28;20024;-16
2021/05/10 08:27:09;;;;;;;1.60;0.60;;;;;;;;;;5089038;28;20649;-16
2021/05/10 08:29:36;;;;;;;1.45;0.70;;;;;;;;;;5088476;28;20143;-15
2021/05/10 08:32:03;;;;;;;1.40;0.73;;;;;;;;;;5089079;28;20032;-17
2021/05/10 08:34:29;;;;;;;1.20;0.68;;;;;;;;;;5089289;28;20036;-15
2021/05/10 08:36:55;;;;;;;0.65;0.47;;;;;;;;;;5089018;28;20077;-15
2021/05/10 08:39:21;;;;;;;0.90;0.60;;;;;;;;;;5089279;28;20112;-14
2021/05/10 08:41:46;;;;;;;1.70;0.82;;;;;;;;;;5088134;28;20016;-14
2021/05/10 08:44:12;;;;;;;0.77;0.65;;;;;;;;;;5104112;28;20038;-13
2021/05/10 08:46:39;;;;;;;1.88;0.65;;;;;;;;;;5088627;28;20475;-13
2021/05/10 08:49:05;;;;;;;0.40;0.30;;;;;;;;;;5088835;28;20071;-13
2021/05/10 08:51:32;;;;;;;0.40;0.40;;;;;;;;;;5087348;28;20044;-14
2021/05/10 08:53:58;;;;;;;2.40;0.38;;;;;;;;;;5088706;28;20051;-13
2021/05/10 08:56:23;;;;;;;1.13;0.50;;;;;;;;;;5088831;28;20482;-13
2021/05/10 08:58:49;;;;;;;0.40;0.35;;;;;;;;;;5087214;28;20454;-13
2021/05/10 09:01:15;;;;;;;0.45;0.45;;;;;;;;;;5088907;28;20035;-13
2021/05/10 09:03:42;;;;;;;0.60;0.57;;;;;;;;;;5088350;28;20085;-13
2021/05/10 09:06:12;;;;;;;0.52;0.32;;;;;;;;;;5088072;28;20062;-13
2021/05/10 09:08:44;;;;;;;0.30;0.22;;;;;;;;;;5088670;28;20036;-14
2021/05/10 09:11:09;;;;;;;0.47;0.37;;;;;;;;;;5088748;28;20040;-13
2021/05/10 09:13:36;;;;;;;3.13;0.63;;;;;;;;;;5088384;28;20374;-14
2021/05/10 09:16:02;;;;;;;3.33;0.68;;;;;;;;;;5089317;28;20604;-13
2021/05/10 09:18:28;;;;;;;1.20;1.10;;;;;;;;;;5092365;28;20008;-13
2021/05/10 09:20:53;;;;;;;1.33;0.55;;;;;;;;;;5092511;28;20031;-13
2021/05/10 09:23:20;;;;;;;0.40;0.40;;;;;;;;;;5108895;28;20102;-13
2021/05/10 09:25:53;;;;;;;0.30;0.30;;;;;;;;;;5092681;28;20138;-13
2021/05/10 09:28:18;;;;;;;;;;;;;;;;;;5093257;28;20072;-13
2021/05/10 09:30:45;;;;;;;0.85;0.68;;;;;;;;;;5091696;28;19970;-13
2021/05/10 09:33:14;;;;;;;0.43;0.40;;;;;;;;;;5092002;28;20036;-13
2021/05/10 09:35:40;;;;;;;3.92;0.65;;;;;;;;;;5092359;28;20024;-14
2021/05/10 09:38:06;;;;;;;2.55;0.63;;;;;;;;;;5090619;28;20055;-13
2021/05/10 09:40:51;;;;;;;1.98;0.50;;;;;;;;;;5092359;28;20387;-13
2021/05/10 09:43:17;;;;;;;1.90;1.23;;;;;;;;;;5092018;28;20071;-14
2021/05/10 09:45:45;;;;;;;1.70;0.70;;;;;;;;;;5092035;28;20086;-13
2021/05/10 09:48:12;;;;;;;0.63;0.52;;;;;;;;;;5091899;28;20044;-13
2021/05/10 09:50:39;;;;;;;0.50;0.20;;;;;;;;;;5091709;28;20042;-14
2021/05/10 09:53:05;;;;;;;0.38;0.32;;;;;;;;;;5091821;28;20111;-12
2021/05/10 09:55:37;;;;;;;1.42;0.60;;;;;;;;;;5091882;28;20566;-13
2021/05/10 09:58:05;;;;;;;1.10;0.65;;;;;;;;;;5091691;28;20475;-13
2021/05/10 10:00:31;;;;;;;0.73;0.70;;;;;;;;;;5091609;28;20024;-13
2021/05/10 10:02:56;;;;;;;0.93;0.80;;;;;;;;;;5091695;28;20039;-13
2021/05/10 10:05:22;;;;;;;0.38;0.30;;;;;;;;;;5091585;28;20028;-13
2021/05/10 10:07:47;;;;;;;0.65;0.65;;;;;;;;;;5091479;28;20044;-15
2021/05/10 10:10:13;;;;;;;2.25;0.80;;;;;;;;;;5091920;28;20031;-13
2021/05/10 10:12:39;;;;;;;0.68;0.60;;;;;;;;;;5092357;28;20032;-13
2021/05/10 10:15:05;;;;;;;3.70;0.90;;;;;;;;;;5091619;28;20070;-13
2021/05/10 10:17:31;;;;;;;0.73;0.50;;;;;;;;;;5091595;28;20071;-12
2021/05/10 10:19:57;;;;;;;2.55;1.08;;;;;;;;;;5091413;28;20053;-14
2021/05/10 10:22:23;;;;;;;1.25;0.60;;;;;;;;;;5091821;28;20032;-13
2021/05/10 10:24:49;;;;;;;0.82;0.40;;;;;;;;;;5093014;28;20066;-13
2021/05/10 10:27:14;;;;;;;3.67;1.45;;;;;;;;;;5094274;28;20047;-13
2021/05/10 10:29:41;;;;;;;3.33;0.38;;;;;;;;;;5094311;28;20483;-14
2021/05/10 10:32:07;;;;;;;0.47;0.47;;;;;;;;;;5093960;28;20050;-13
2021/05/10 10:34:35;;;;;;;0.60;0.60;;;;;;;;;;5095040;28;20608;-14
2021/05/10 10:37:02;;;;;;;0.45;0.40;;;;;;;;;;5095328;28;20028;-14
2021/05/10 10:39:30;;;;;;;4.50;0.75;;;;;;;;;;5093559;28;20494;-14
2021/05/10 10:42:12;;;;;;;1.95;0.52;;;;;;;;;;5094974;28;20368;-13
2021/05/10 10:44:42;;;;;;;2.03;0.80;;;;;;;;;;5094797;28;20059;-15
2021/05/10 10:47:11;;;;;;;2.50;0.90;;;;;;;;;;5094532;28;20032;-13
2021/05/10 10:49:38;;;;;;;0.55;0.55;;;;;;;;;;5094654;28;20502;-14
2021/05/10 10:52:04;;;;;;;0.63;0.40;;;;;;;;;;5094500;28;20027;-14
2021/05/10 10:54:30;;;;;;;0.47;0.30;;;;;;;;;;5094500;28;20036;-13
2021/05/10 10:57:00;;;;;;;0.95;0.60;;;;;;;;;;5094449;28;20046;-13
2021/05/10 10:59:28;;;;;;;4.47;0.60;;;;;;;;;;5094477;28;20036;-13
2021/05/10 11:01:54;;;;;;;1.55;0.60;;;;;;;;;;5094276;28;20395;-13
2021/05/10 11:04:23;;;;;;;1.23;0.75;;;;;;;;;;5094683;28;20073;-13
2021/05/10 11:06:49;;;;;;;1.60;0.57;;;;;;;;;;5094122;28;20050;-13
2021/05/10 11:09:15;;;;;;;1.92;1.38;;;;;;;;;;5094476;28;20032;-12
2021/05/10 11:11:41;;;;;;;0.25;0.25;;;;;;;;;;5094197;28;20016;-13
2021/05/10 11:14:11;;;;;;;2.45;0.70;;;;;;;;;;5092745;28;20062;-13
2021/05/10 11:16:44;;;;;;;0.60;0.60;;;;;;;;;;5094063;28;20073;-13
2021/05/10 11:19:26;;;;;;;0.43;0.30;;;;;;;;;;5092710;28;20478;-13
2021/05/10 11:21:52;;;;;;;0.00;0.00;;;;;;;;;;5094253;28;20028;-14
2021/05/10 11:24:24;;;;;;;0.50;0.50;;;;;;;;;;5094068;28;20592;-13
2021/05/10 11:26:53;;;;;;;1.25;0.55;;;;;;;;;;5093821;28;20042;-13
2021/05/10 11:29:25;;;;;;;3.53;0.80;;;;;;;;;;5093895;28;20100;-13
2021/05/10 11:31:51;;;;;;;1.23;0.57;;;;;;;;;;5093896;28;20020;-12
2021/05/10 11:34:24;;;;;;;6.18;0.47;;;;;;;;;;5093754;28;20085;-13
2021/05/10 11:36:52;;;;;;;0.80;0.70;;;;;;;;;;5093707;28;20032;-13
2021/05/10 11:39:26;;;;;;;0.40;0.30;;;;;;;;;;5093388;28;20229;-13
2021/05/10 11:41:56;;;;;;;1.20;0.50;;;;;;;;;;5093221;28;20374;-14
2021/05/10 11:44:22;;;;;;;0.30;0.30;;;;;;;;;;5093553;28;20035;-13
2021/05/10 11:46:49;;;;;;;3.60;0.75;;;;;;;;;;5093283;28;20024;-13
2021/05/10 11:49:38;;;;;;;0.65;0.65;;;;;;;;;;5093332;28;20021;-13
2021/05/10 11:52:14;;;;;;;1.95;0.52;;;;;;;;;;5086563;28;20492;-14
2021/05/10 11:54:41;;;;;;;2.25;0.60;;;;;;;;;;5093336;28;20060;-13
2021/05/10 11:57:09;;;;;;;0.50;0.38;;;;;;;;;;5093242;28;20020;-13
2021/05/10 11:59:46;;;;;;;0.63;0.60;;;;;;;;;;5089059;28;20060;-13
2021/05/10 12:02:13;;;;;;;0.47;0.40;;;;;;;;;;5090256;28;20031;-15
2021/05/10 12:04:42;;;;;;;4.60;0.85;;;;;;;;;;5089799;28;20039;-15
2021/05/10 12:07:09;;;;;;;1.52;0.75;;;;;;;;;;5088408;28;20044;-16
2021/05/10 12:09:41;;;;;;;0.63;0.40;;;;;;;;;;4778966;28;10001088;-16
2021/05/10 12:12:19;;;;;;;0.95;0.57;;;;;;;;;;5089277;28;20836;-14
2021/05/10 12:14:55;;;;;;;0.40;0.40;;;;;;;;;;5104825;28;20028;-14
2021/05/10 12:17:24;;;;;;;0.40;0.40;;;;;;;;;;5089031;28;20107;-12
2021/05/10 12:19:51;;;;;;;4.40;0.90;;;;;;;;;;5089251;28;20486;-13
2021/05/10 12:22:18;;;;;;;0.60;0.47;;;;;;;;;;5089231;28;20122;-13
2021/05/10 12:25:00;;;;;;;0.57;0.50;;;;;;;;;;5087962;28;20526;-14
2021/05/10 12:27:35;;;;;;;1.25;0.75;;;;;;;;;;5088889;28;20032;-13
2021/05/10 12:30:01;;;;;;;1.05;0.68;;;;;;;;;;5088720;28;20151;-13
2021/05/10 12:32:27;;;;;;;1.23;0.50;;;;;;;;;;5088986;28;20123;-13
2021/05/10 12:34:54;;;;;;;1.23;0.30;;;;;;;;;;5088294;28;20074;-13
2021/05/10 12:37:19;;;;;;;0.63;0.63;;;;;;;;;;5088858;28;20040;-13
2021/05/10 12:39:45;;;;;;;2.78;0.70;;;;;;;;;;5104449;28;20047;-13
2021/05/10 12:42:20;;;;;;;0.40;0.40;;;;;;;;;;5089100;28;20020;-13
2021/05/10 12:45:15;;;;;;;1.42;0.40;;;;;;;;;;5089100;28;20016;-14
2021/05/10 12:47:44;;;;;;;0.77;0.68;;;;;;;;;;5083269;28;20048;-13
2021/05/10 12:50:12;;;;;;;1.27;0.55;;;;;;;;;;5088679;28;20054;-13
2021/05/10 12:52:47;;;;;;;2.05;0.60;;;;;;;;;;5103897;28;20387;-13
2021/05/10 12:55:23;;;;;;;1.35;0.60;;;;;;;;;;5089157;28;20441;-14
2021/05/10 12:57:49;;;;;;;0.50;0.40;;;;;;;;;;5088350;28;20036;-14
2021/05/10 13:00:37;;;;;;;1.08;0.50;;;;;;;;;;5088381;28;20016;-13
2021/05/10 13:03:06;;;;;;;1.58;0.60;;;;;;;;;;5088774;28;20043;-15
2021/05/10 13:05:32;;;;;;;0.65;0.60;;;;;;;;;;5088895;28;20020;-13
2021/05/10 13:07:57;;;;;;;0.70;0.30;;;;;;;;;;5088886;28;20036;-14
2021/05/10 13:10:23;;;;;;;0.30;0.30;;;;;;;;;;5088426;28;20061;-14
2021/05/10 13:12:49;;;;;;;1.90;0.60;;;;;;;;;;5089350;28;20044;-14
2021/05/10 13:15:24;;;;;;;0.50;0.50;;;;;;;;;;5088702;28;20020;-13
2021/05/10 13:18:03;;;;;;;0.90;0.60;;;;;;;;;;5089017;28;20040;-13
2021/05/10 13:20:54;;;;;;;1.95;0.70;;;;;;;;;;5088977;28;20032;-13
2021/05/10 13:27:05;;;;;;;6.90;0.60;;;;;;;;;;5088478;28;20040;-14
2021/05/10 13:31:43;;;;;;;2.58;0.63;;;;;;;;;;5088868;28;20040;-13
2021/05/10 13:36:35;;;;;;;1.23;0.60;;;;;;;;;;5088802;28;20114;-13
2021/05/10 13:39:03;;;;;;;0.98;0.52;;;;;;;;;;5089003;28;20055;-13
2021/05/10 13:41:34;;;;;;;0.85;0.70;;;;;;;;;;5088489;28;20016;-12
2021/05/10 13:44:06;;;;;;;0.68;0.47;;;;;;;;;;5088217;28;20093;-13
2021/05/10 13:46:31;;;;;;;1.02;0.50;;;;;;;;;;5088021;28;20066;-14
2021/05/10 13:48:57;;;;;;;0.50;0.40;;;;;;;;;;5087852;28;20068;-12
2021/05/10 13:51:23;;;;;;;2.83;0.65;;;;;;;;;;5088206;28;20457;-13
2021/05/10 13:53:48;;;;;;;1.15;1.05;;;;;;;;;;5088325;28;20058;-13
2021/05/10 13:56:14;;;;;;;0.77;0.57;;;;;;;;;;5087951;28;20029;-13
2021/05/10 13:58:44;;;;;;;2.65;0.50;;;;;;;;;;5087913;28;20123;-13
2021/05/10 14:01:11;;;;;;;0.57;0.57;;;;;;;;;;5088537;28;20032;-13
2021/05/10 14:03:36;;;;;;;1.50;0.77;;;;;;;;;;5089540;28;20028;-14
2021/05/10 14:06:02;;;;;;;1.52;0.65;;;;;;;;;;5091516;28;20077;-12
2021/05/10 14:08:27;;;;;;;0.70;0.70;;;;;;;;;;5091926;28;20094;-18
2021/05/10 14:10:52;;;;;;;0.47;0.35;;;;;;;;;;5091607;28;20073;-13
2021/05/10 14:13:19;;;;;;;1.27;0.45;;;;;;;;;;5091913;28;20513;-14
2021/05/10 14:15:44;;;;;;;0.57;0.50;;;;;;;;;;5092110;28;20024;-14
2021/05/10 14:18:13;;;;;;;0.60;0.60;;;;;;;;;;5092093;28;20032;-13
2021/05/10 14:23:24;;;;;;;1.02;0.50;;;;;;;;;;5091851;28;20394;-14
2021/05/10 14:25:49;;;;;;;1.45;0.55;;;;;;;;;;5091674;28;20031;-14
2021/05/10 14:28:14;;;;;;;1.55;0.40;;;;;;;;;;5090653;28;20055;-13
2021/05/10 14:30:40;;;;;;;2.63;0.65;;;;;;;;;;5091580;28;20127;-14
2021/05/10 14:33:05;;;;;;;5.45;0.60;;;;;;;;;;5091575;28;20036;-13
2021/05/10 14:35:31;;;;;;;0.40;0.30;;;;;;;;;;5091062;28;20115;-13
2021/05/10 14:37:56;;;;;;;1.80;0.70;;;;;;;;;;5091768;28;20032;-14
2021/05/10 14:40:21;;;;;;;2.15;0.60;;;;;;;;;;5091287;28;20455;-14
2021/05/10 14:42:47;;;;;;;0.95;0.55;;;;;;;;;;5091449;28;20030;-14
2021/05/10 14:45:12;;;;;;;0.70;0.68;;;;;;;;;;5090944;28;20020;-14
2021/05/10 14:47:38;;;;;;;1.42;0.50;;;;;;;;;;5090336;28;20046;-14
2021/05/10 14:50:03;;;;;;;0.50;0.40;;;;;;;;;;5091275;28;20036;-14
2021/05/10 14:52:29;;;;;;;0.90;0.52;;;;;;;;;;5089829;28;20712;-12
2021/05/10 14:54:54;;;;;;;0.70;0.40;;;;;;;;;;5090940;28;20046;-13
2021/05/10 14:57:20;;;;;;;1.30;0.68;;;;;;;;;;5091306;28;20024;-12
2021/05/10 14:59:45;;;;;;;1.20;0.70;;;;;;;;;;5090547;28;20008;-12